createdAt,value
2023-02-03T00:02:09.825Z,14.10
2023-02-03T00:04:36.638Z,11.43
2023-02-03T00:07:04.354Z,12.70
2023-02-03T00:09:31.455Z,12.70
2023-02-03T00:11:58.331Z,14.32
2023-02-03T00:14:25.181Z,12.77
2023-02-03T00:16:52.116Z,14.32
2023-02-03T00:19:18.989Z,12.75
2023-02-03T00:21:46.172Z,13.70
2023-02-03T00:24:13.111Z,23.45
2023-02-03T00:26:43.818Z,18.80
2023-02-03T00:29:11.525Z,18.10
2023-02-03T00:31:38.929Z,22.45
2023-02-03T00:34:06.005Z,20.35
2023-02-03T00:36:32.933Z,15.15
2023-02-03T00:39:01.503Z,16.83
2023-02-03T00:41:31.700Z,16.60
2023-02-03T00:43:58.654Z,13.25
2023-02-03T00:46:25.567Z,11.45
2023-02-03T00:48:52.521Z,14.82
2023-02-03T00:51:19.415Z,21.63
2023-02-03T00:53:49.418Z,14.88
2023-02-03T00:56:16.376Z,11.43
2023-02-03T00:58:43.316Z,11.63
2023-02-03T01:01:10.908Z,11.32
2023-02-03T01:03:38.303Z,10.07
2023-02-03T01:06:14.235Z,11.68
2023-02-03T01:08:42.243Z,10.43
2023-02-03T01:11:21.960Z,11.07
2023-02-03T01:13:50.667Z,12.95
2023-02-03T01:16:20.548Z,14.85
2023-02-03T01:18:48.425Z,17.70
2023-02-03T01:21:20.074Z,17.90
2023-02-03T01:23:47.451Z,16.90
2023-02-03T01:26:17.737Z,17.58
2023-02-03T01:28:45.175Z,18.20
2023-02-03T01:31:22.836Z,19.98
2023-02-03T01:33:52.200Z,17.23
2023-02-03T01:36:19.176Z,14.93
2023-02-03T01:38:46.753Z,19.20
2023-02-03T01:41:21.017Z,16.38
2023-02-03T01:43:56.783Z,17.33
2023-02-03T01:46:43.152Z,17.25
2023-02-03T01:49:23.808Z,16.75
2023-02-03T01:51:53.455Z,14.65
2023-02-03T01:54:29.001Z,17.55
2023-02-03T01:57:06.429Z,17.35
2023-02-03T01:59:36.721Z,15.35
2023-02-03T02:02:05.890Z,15.30
2023-02-03T02:04:51.190Z,13.95
2023-02-03T02:07:18.111Z,16.08
2023-02-03T02:09:46.766Z,17.83
2023-02-03T02:12:13.726Z,14.27
2023-02-03T02:14:42.871Z,15.55
2023-02-03T02:17:24.561Z,14.23
2023-02-03T02:20:43.905Z,13.52
2023-02-03T02:23:40.562Z,12.90
2023-02-03T02:26:47.319Z,13.80
2023-02-03T02:29:49.100Z,12.43
2023-02-03T02:32:40.277Z,10.73
2023-02-03T02:35:45.812Z,12.20
2023-02-03T02:38:36.512Z,13.68
2023-02-03T02:41:16.770Z,9.63
2023-02-03T02:44:00.458Z,11.43
2023-02-03T02:46:43.663Z,9.35
2023-02-03T02:49:35.451Z,11.00
2023-02-03T02:52:07.810Z,11.18
2023-02-03T02:54:40.935Z,11.25
2023-02-03T02:57:13.463Z,8.95
2023-02-03T02:59:40.388Z,9.27
2023-02-03T03:02:10.434Z,8.80
2023-02-03T03:04:37.957Z,10.10
2023-02-03T03:07:22.097Z,11.57
2023-02-03T03:09:55.491Z,13.52
2023-02-03T03:12:29.719Z,9.95
2023-02-03T03:15:08.249Z,10.63
2023-02-03T03:17:43.782Z,10.00
2023-02-03T03:20:18.985Z,9.45
2023-02-03T03:22:54.784Z,10.95
2023-02-03T03:25:29.979Z,11.32
2023-02-03T03:28:04.943Z,11.48
2023-02-03T03:30:38.951Z,13.18
2023-02-03T03:33:08.129Z,11.90
2023-02-03T03:36:27.182Z,10.63
2023-02-03T03:39:07.810Z,9.52
2023-02-03T03:41:43.471Z,10.70
2023-02-03T03:44:15.924Z,10.63
2023-02-03T03:46:52.031Z,10.73
2023-02-03T03:49:23.441Z,10.25
2023-02-03T03:52:02.866Z,11.57
2023-02-03T03:54:32.736Z,13.80
2023-02-03T03:57:19.609Z,11.48
2023-02-03T03:59:49.495Z,13.43
2023-02-03T04:02:20.377Z,12.50
2023-02-03T04:04:49.732Z,12.57
2023-02-03T04:07:16.632Z,14.23
2023-02-03T04:09:43.544Z,14.25
2023-02-03T04:12:39.587Z,15.13
2023-02-03T04:15:06.808Z,13.07
2023-02-03T04:17:36.125Z,15.43
2023-02-03T04:20:05.026Z,15.68
2023-02-03T04:22:31.957Z,14.45
2023-02-03T04:24:59.052Z,15.50
2023-02-03T04:27:27.368Z,15.10
2023-02-03T04:29:54.328Z,13.98
2023-02-03T04:32:21.188Z,12.88
2023-02-03T04:34:48.105Z,19.38
2023-02-03T04:37:14.996Z,13.95
2023-02-03T04:39:41.892Z,17.58
2023-02-03T04:42:08.789Z,16.83
2023-02-03T04:44:35.616Z,17.45
2023-02-03T04:47:02.414Z,15.18
2023-02-03T04:49:29.251Z,14.05
2023-02-03T04:51:56.119Z,13.75
2023-02-03T04:54:22.918Z,16.17
2023-02-03T04:56:49.775Z,17.33
2023-02-03T04:59:16.670Z,18.20
2023-02-03T05:01:43.543Z,14.18
2023-02-03T05:04:10.406Z,17.52
2023-02-03T05:06:37.267Z,13.43
2023-02-03T05:09:04.523Z,14.10
2023-02-03T05:11:31.535Z,15.38
2023-02-03T05:13:58.756Z,16.73
2023-02-03T05:16:25.657Z,15.77
2023-02-03T05:18:52.470Z,17.77
2023-02-03T05:21:19.335Z,17.77
2023-02-03T05:23:46.416Z,23.08
2023-02-03T05:26:13.347Z,21.40
2023-02-03T05:28:40.169Z,33.65
2023-02-03T05:31:07.156Z,24.73
2023-02-03T05:33:34.246Z,19.23
2023-02-03T05:36:01.060Z,18.15
2023-02-03T05:38:28.133Z,16.88
2023-02-03T05:41:13.367Z,20.85
2023-02-03T05:43:40.203Z,22.10
2023-02-03T05:46:07.939Z,20.40
2023-02-03T05:48:35.412Z,19.70
2023-02-03T05:51:02.371Z,22.33
2023-02-03T05:53:29.370Z,20.73
2023-02-03T05:55:56.236Z,17.67
2023-02-03T05:58:23.306Z,17.88
2023-02-03T06:00:50.226Z,22.80
2023-02-03T06:03:17.218Z,20.42
2023-02-03T06:05:44.963Z,15.45
2023-02-03T06:08:11.943Z,18.67
2023-02-03T06:10:38.905Z,19.17
2023-02-03T06:13:23.763Z,20.33
2023-02-03T06:15:50.572Z,21.75
2023-02-03T06:18:17.417Z,18.83
2023-02-03T06:20:44.276Z,17.33
2023-02-03T06:23:11.498Z,20.83
2023-02-03T06:25:38.341Z,17.88
2023-02-03T06:28:05.535Z,18.83
2023-02-03T06:30:32.436Z,18.45
2023-02-03T06:32:59.285Z,16.38
2023-02-03T06:35:26.135Z,19.27
2023-02-03T06:37:53.041Z,18.85
2023-02-03T06:40:20.151Z,24.50
2023-02-03T06:42:48.181Z,20.02
2023-02-03T06:45:15.533Z,24.10
2023-02-03T06:47:44.409Z,20.52
2023-02-03T06:50:15.748Z,19.33
2023-02-03T06:52:43.253Z,17.98
2023-02-03T06:55:11.013Z,24.65
2023-02-03T06:57:45.564Z,29.63
2023-02-03T07:00:16.765Z,27.48
2023-02-03T07:02:45.678Z,29.65
2023-02-03T07:05:12.614Z,30.02
2023-02-03T07:07:39.557Z,24.70
2023-02-03T07:10:08.078Z,25.13
2023-02-03T07:12:36.586Z,22.92
2023-02-03T07:15:05.385Z,19.52
2023-02-03T07:17:32.293Z,23.25
2023-02-03T07:20:01.642Z,21.23
2023-02-03T07:22:28.509Z,20.85
2023-02-03T07:24:55.428Z,22.85
2023-02-03T07:27:22.272Z,26.15
2023-02-03T07:29:49.083Z,26.98
2023-02-03T07:32:15.992Z,22.67
2023-02-03T07:34:42.840Z,19.20
2023-02-03T07:37:09.717Z,21.75
2023-02-03T07:39:36.563Z,19.73
2023-02-03T07:42:03.528Z,20.02
2023-02-03T07:44:30.551Z,24.58
2023-02-03T07:46:57.539Z,23.77
2023-02-03T07:49:24.420Z,25.83
2023-02-03T07:51:51.297Z,24.27
2023-02-03T07:54:18.277Z,24.38
2023-02-03T07:56:46.577Z,27.17
2023-02-03T07:59:13.556Z,24.95
2023-02-03T08:01:40.400Z,25.90
2023-02-03T08:04:07.448Z,26.00
2023-02-03T08:06:34.732Z,24.77
2023-02-03T08:09:01.638Z,27.35
2023-02-03T08:11:28.563Z,24.83
2023-02-03T08:13:55.431Z,24.73
2023-02-03T08:16:22.430Z,26.98
2023-02-03T08:18:49.315Z,31.95
2023-02-03T08:21:16.387Z,28.98
2023-02-03T08:23:43.262Z,25.83
2023-02-03T08:26:10.104Z,28.98
2023-02-03T08:28:36.995Z,36.13
2023-02-03T08:31:11.148Z,32.78
2023-02-03T08:33:38.643Z,27.60
2023-02-03T08:36:06.417Z,26.02
2023-02-03T08:38:33.600Z,24.35
2023-02-03T08:41:00.458Z,27.77
2023-02-03T08:43:27.419Z,26.92
2023-02-03T08:45:54.363Z,33.42
2023-02-03T08:48:21.317Z,22.98
2023-02-03T08:50:52.771Z,21.67
2023-02-03T08:53:19.773Z,22.65
2023-02-03T08:55:46.609Z,20.05
2023-02-03T08:58:13.494Z,22.83
2023-02-03T09:00:41.834Z,19.13
2023-02-03T09:03:11.679Z,21.73
2023-02-03T09:05:38.656Z,59.30
2023-02-03T09:08:05.835Z,26.50
2023-02-03T09:10:32.666Z,21.80
2023-02-03T09:12:59.506Z,23.42
2023-02-03T09:15:27.017Z,21.48
2023-02-03T09:17:55.333Z,24.23
2023-02-03T09:20:23.533Z,25.35
2023-02-03T09:22:50.451Z,23.40
2023-02-03T09:25:17.703Z,22.95
2023-02-03T09:27:44.586Z,24.48
2023-02-03T09:30:13.565Z,21.60
2023-02-03T09:32:40.416Z,26.40
2023-02-03T09:35:07.493Z,26.50
2023-02-03T09:37:34.379Z,22.58
2023-02-03T09:40:01.214Z,22.55
2023-02-03T09:42:52.901Z,22.73
2023-02-03T09:45:30.622Z,24.40
2023-02-03T09:48:09.237Z,24.08
2023-02-03T09:50:40.542Z,21.95
2023-02-03T09:53:30.133Z,24.15
2023-02-03T09:55:59.465Z,25.10
2023-02-03T09:58:32.970Z,26.35
2023-02-03T10:01:05.632Z,27.85
2023-02-03T10:03:58.210Z,28.10
2023-02-03T10:06:43.132Z,30.43
2023-02-03T10:09:19.630Z,29.60
2023-02-03T10:12:20.649Z,34.85
2023-02-03T10:15:04.229Z,32.10
2023-02-03T10:17:36.967Z,28.02
2023-02-03T10:20:22.079Z,32.47
2023-02-03T10:22:59.771Z,31.15
2023-02-03T10:25:33.960Z,33.13
2023-02-03T10:28:09.609Z,34.25
2023-02-03T10:31:16.027Z,30.63
2023-02-03T10:33:42.904Z,32.33
2023-02-03T10:36:23.598Z,35.55
2023-02-03T10:39:01.778Z,33.03
2023-02-03T10:41:31.000Z,34.90
2023-02-03T10:44:04.118Z,29.77
2023-02-03T10:46:35.340Z,29.85
2023-02-03T10:49:02.582Z,29.83
2023-02-03T10:52:04.917Z,31.25
2023-02-03T10:54:35.402Z,30.20
2023-02-03T10:57:07.243Z,32.42
2023-02-03T10:59:41.085Z,31.20
2023-02-03T11:02:30.240Z,32.17
2023-02-03T11:05:24.922Z,26.80
2023-02-03T11:07:53.096Z,30.13
2023-02-03T11:10:36.281Z,32.42
2023-02-03T11:13:21.575Z,32.00
2023-02-03T11:16:10.610Z,29.73
2023-02-03T11:18:48.559Z,28.85
2023-02-03T11:21:33.822Z,32.55
2023-02-03T11:24:36.950Z,31.85
2023-02-03T11:27:11.690Z,29.30
2023-02-03T11:29:44.794Z,28.58
2023-02-03T11:32:33.107Z,30.75
2023-02-03T11:35:15.216Z,29.38
2023-02-03T11:37:49.058Z,28.05
2023-02-03T11:40:15.908Z,26.05
2023-02-03T11:42:46.263Z,28.00
2023-02-03T11:45:41.841Z,27.20
2023-02-03T11:48:21.475Z,24.25
2023-02-03T11:51:19.016Z,24.33
2023-02-03T11:54:17.293Z,27.02
2023-02-03T11:57:05.190Z,24.95
2023-02-03T12:00:03.470Z,25.50
2023-02-03T12:03:12.548Z,28.17
2023-02-03T12:05:47.960Z,25.05
2023-02-03T12:08:32.821Z,25.85
2023-02-03T12:11:02.656Z,23.58
2023-02-03T12:13:44.742Z,24.08
2023-02-03T12:16:35.996Z,22.92
2023-02-03T12:19:19.496Z,22.38
2023-02-03T12:22:02.928Z,21.58
2023-02-03T12:25:20.119Z,19.88
2023-02-03T12:28:01.599Z,22.85
2023-02-03T12:30:38.504Z,23.42
2023-02-03T12:33:23.360Z,20.65
2023-02-03T12:36:18.483Z,24.65
2023-02-03T12:39:10.769Z,22.05
2023-02-03T12:42:05.887Z,22.13
2023-02-03T12:44:44.552Z,22.30
2023-02-03T12:47:28.277Z,24.60
2023-02-03T12:50:07.091Z,24.38
2023-02-03T12:52:48.245Z,26.38
2023-02-03T12:55:55.848Z,20.52
2023-02-03T12:58:52.019Z,21.45
2023-02-03T13:01:24.724Z,21.60
2023-02-03T13:04:20.979Z,22.77
2023-02-03T13:07:12.892Z,22.25
2023-02-03T13:10:14.316Z,24.23
2023-02-03T13:12:51.735Z,21.95
2023-02-03T13:15:43.297Z,22.05
2023-02-03T13:18:26.383Z,21.23
2023-02-03T13:23:22.848Z,15.48
2023-02-03T13:26:48.472Z,19.85
2023-02-03T13:29:39.695Z,17.75
2023-02-03T13:32:38.280Z,20.52
2023-02-03T13:35:35.276Z,18.35
2023-02-03T13:38:39.159Z,18.23
2023-02-03T13:41:15.899Z,12.45
2023-02-03T13:43:51.304Z,13.00
2023-02-03T13:46:27.950Z,12.10
2023-02-03T13:48:59.991Z,12.90
2023-02-03T13:51:46.045Z,11.33
2023-02-03T13:54:33.446Z,12.57
2023-02-03T13:57:35.136Z,13.27
2023-02-03T14:00:45.575Z,11.38
2023-02-03T14:03:36.575Z,12.23
2023-02-03T14:06:03.692Z,13.57
2023-02-03T14:08:30.482Z,11.52
2023-02-03T14:11:34.417Z,13.02
2023-02-03T14:14:07.510Z,13.32
2023-02-03T14:16:49.577Z,12.88
2023-02-03T14:19:22.747Z,13.77
2023-02-03T14:21:56.008Z,14.45
2023-02-03T14:24:29.875Z,13.35
2023-02-03T14:27:00.846Z,11.70
2023-02-03T14:29:36.656Z,13.20
2023-02-03T14:32:09.678Z,14.13
2023-02-03T14:37:32.713Z,12.67
2023-02-03T14:40:27.426Z,13.15
2023-02-03T14:43:18.923Z,14.10
2023-02-03T14:46:20.991Z,14.73
2023-02-03T14:49:28.304Z,17.75
2023-02-03T14:52:32.697Z,21.80
2023-02-03T14:55:02.554Z,18.15
2023-02-03T14:57:47.768Z,21.73
2023-02-03T15:00:21.664Z,24.17
2023-02-03T15:03:07.684Z,23.38
2023-02-03T15:05:38.912Z,23.52
2023-02-03T15:08:33.221Z,24.63
2023-02-03T15:11:01.105Z,25.00
2023-02-03T15:13:32.240Z,25.35
2023-02-03T15:16:03.324Z,27.60
2023-02-03T15:18:36.769Z,26.00
2023-02-03T15:21:05.357Z,27.80
2023-02-03T15:23:48.446Z,26.50
2023-02-03T15:28:59.592Z,26.67
2023-02-03T15:31:49.708Z,23.38
2023-02-03T15:34:25.118Z,27.95
2023-02-03T15:36:57.892Z,26.73
2023-02-03T15:39:45.442Z,28.10
2023-02-03T15:42:32.198Z,29.45
2023-02-03T15:45:18.314Z,26.60
2023-02-03T15:48:01.626Z,24.80
2023-02-03T15:50:40.130Z,28.38
2023-02-03T15:53:25.012Z,27.80
2023-02-03T15:55:59.493Z,27.08
2023-02-03T15:58:38.733Z,31.88
2023-02-03T16:01:17.719Z,28.85
2023-02-03T16:03:56.790Z,29.30
2023-02-03T16:06:37.103Z,29.02
2023-02-03T16:09:07.079Z,29.42
2023-02-03T16:11:38.616Z,31.75
2023-02-03T16:14:12.220Z,31.67
2023-02-03T16:16:55.222Z,33.13
2023-02-03T16:19:34.147Z,30.80
2023-02-03T16:22:01.347Z,30.90
2023-02-03T16:24:45.846Z,30.58
2023-02-03T16:27:27.527Z,25.73
2023-02-03T16:30:38.733Z,29.25
2023-02-03T16:33:34.919Z,28.95
2023-02-03T16:36:32.825Z,30.73
2023-02-03T16:39:29.325Z,28.35
2023-02-03T16:42:18.477Z,30.02
2023-02-03T16:45:04.925Z,31.77
2023-02-03T16:47:51.440Z,33.60
2023-02-03T16:50:40.773Z,32.33
2023-02-03T16:53:16.421Z,36.10
2023-02-03T16:55:45.999Z,38.85
2023-02-03T16:58:13.426Z,38.08
2023-02-03T17:00:45.567Z,40.78
2023-02-03T17:03:15.538Z,36.53
2023-02-03T17:05:45.291Z,36.72
2023-02-03T17:08:13.583Z,35.58
2023-02-03T17:10:43.931Z,36.00
2023-02-03T17:13:12.372Z,34.33
2023-02-03T17:15:48.922Z,31.98
2023-02-03T17:18:16.370Z,105.15
2023-02-03T17:20:45.256Z,29.40
2023-02-03T17:23:16.261Z,29.40
2023-02-03T17:25:50.550Z,31.05
2023-02-03T17:28:18.007Z,27.45
2023-02-03T17:30:45.344Z,27.70
2023-02-03T17:33:14.341Z,24.25
2023-02-03T17:35:44.407Z,25.58
2023-02-03T17:38:14.930Z,27.38
2023-02-03T17:54:43.468Z,27.88
2023-02-03T17:57:10.359Z,30.42
2023-02-03T17:59:38.152Z,30.17
2023-02-03T18:02:05.143Z,28.52
2023-02-03T18:04:32.435Z,31.38
2023-02-03T18:06:59.430Z,31.38
2023-02-03T18:09:26.574Z,30.55
2023-02-03T18:11:53.696Z,29.92
2023-02-03T18:14:20.673Z,28.55
2023-02-03T18:16:47.830Z,32.70
2023-02-03T18:19:16.568Z,31.02
2023-02-03T18:21:44.252Z,29.83
2023-02-03T18:24:13.922Z,32.75
2023-02-03T18:26:51.859Z,31.08
2023-02-03T18:29:19.325Z,28.95
2023-02-03T18:31:47.933Z,25.92
2023-02-03T18:34:16.999Z,27.80
2023-02-03T18:36:45.215Z,28.67
2023-02-03T18:39:14.686Z,27.52
2023-02-03T18:41:41.799Z,26.38
2023-02-03T18:44:09.117Z,26.35
2023-02-03T18:46:36.041Z,23.40
2023-02-03T18:49:03.588Z,24.67
2023-02-03T18:51:30.649Z,24.83
2023-02-03T18:53:59.670Z,27.30
2023-02-03T18:56:35.802Z,26.75
2023-02-03T18:59:09.758Z,24.58
2023-02-03T19:01:38.912Z,22.38
2023-02-03T19:04:07.282Z,22.27
2023-02-03T19:06:35.824Z,21.33
2023-02-03T19:09:05.865Z,22.83
2023-02-03T19:11:33.764Z,19.17
2023-02-03T19:14:00.765Z,22.13
2023-02-03T19:16:27.904Z,22.92
2023-02-03T19:18:54.888Z,23.80
2023-02-03T19:21:21.783Z,23.00
2023-02-03T19:23:48.853Z,21.00
2023-02-03T19:26:15.760Z,23.33
2023-02-03T19:28:42.878Z,23.58
2023-02-03T19:31:15.599Z,20.25
2023-02-03T19:33:42.887Z,22.17
2023-02-03T19:36:11.783Z,19.88
2023-02-03T19:38:38.908Z,21.25
2023-02-03T19:41:07.581Z,22.02
2023-02-03T19:43:35.073Z,22.58
2023-02-03T19:46:02.791Z,21.63
2023-02-03T19:48:29.922Z,22.70
2023-02-03T19:50:57.274Z,21.10
2023-02-03T19:53:24.697Z,25.60
2023-02-03T19:55:52.677Z,21.23
2023-02-03T19:58:19.735Z,21.33
2023-02-03T20:00:46.957Z,25.20
2023-02-03T20:03:14.248Z,21.00
2023-02-03T20:05:41.220Z,25.65
2023-02-03T20:08:13.097Z,21.05
2023-02-03T20:10:42.581Z,23.30
2023-02-03T20:13:10.942Z,25.58
2023-02-03T20:15:38.361Z,23.30
2023-02-03T20:18:08.121Z,24.17
2023-02-03T20:20:36.522Z,26.75
2023-02-03T20:23:03.803Z,25.15
2023-02-03T20:25:30.946Z,26.38
2023-02-03T20:27:59.612Z,24.50
2023-02-03T20:30:26.998Z,28.48
2023-02-03T20:32:59.509Z,24.90
2023-02-03T20:35:27.509Z,22.33
2023-02-03T20:37:54.537Z,23.30
2023-02-03T20:40:24.173Z,22.63
2023-02-03T20:42:53.193Z,22.08
2023-02-03T20:45:23.345Z,20.42
2023-02-03T20:47:51.650Z,19.65
2023-02-03T20:50:25.245Z,19.58
2023-02-03T20:52:56.195Z,22.27
2023-02-03T20:55:24.427Z,23.85
2023-02-03T20:57:54.526Z,23.33
2023-02-03T21:00:26.050Z,26.27
2023-02-03T21:03:11.823Z,22.20
2023-02-03T21:05:42.895Z,25.10
2023-02-03T21:08:16.768Z,20.08
2023-02-03T21:10:46.245Z,23.42
2023-02-03T21:13:29.116Z,21.90
2023-02-03T21:16:03.135Z,25.52
2023-02-03T21:18:32.911Z,21.10
2023-02-03T21:21:01.035Z,27.17
2023-02-03T21:23:42.063Z,26.83
2023-02-03T21:26:25.443Z,24.75
2023-02-03T21:28:59.034Z,24.27
2023-02-03T21:31:33.892Z,24.38
2023-02-03T21:34:05.778Z,22.55
2023-02-03T21:36:37.908Z,24.75
2023-02-03T21:39:27.825Z,23.23
2023-02-03T21:41:56.130Z,24.80
2023-02-03T21:44:36.072Z,18.27
2023-02-03T21:47:15.145Z,24.92
2023-02-03T21:49:42.694Z,20.27
2023-02-03T21:52:16.296Z,27.77
2023-02-03T21:54:44.385Z,20.20
2023-02-03T21:57:15.372Z,23.38
2023-02-03T21:59:48.740Z,17.98
2023-02-03T22:03:00.966Z,19.55
2023-02-03T22:05:30.122Z,20.70
2023-02-03T22:07:57.657Z,16.42
2023-02-03T22:10:25.074Z,17.13
2023-02-03T22:12:52.605Z,17.88
2023-02-03T22:15:22.981Z,9.98
2023-02-03T22:17:51.022Z,15.70
2023-02-03T22:20:18.472Z,15.38
2023-02-03T22:22:45.366Z,13.82
2023-02-03T22:25:12.463Z,15.75
2023-02-03T22:27:39.331Z,16.23
2023-02-03T22:30:07.103Z,21.58
2023-02-03T22:32:34.227Z,20.48
2023-02-03T22:35:01.103Z,20.30
2023-02-03T22:37:28.350Z,19.55
2023-02-03T22:39:55.250Z,20.25
2023-02-03T22:42:22.339Z,18.40
2023-02-03T22:44:49.317Z,21.20
2023-02-03T22:47:16.288Z,18.80
2023-02-03T22:49:43.140Z,20.10
2023-02-03T22:52:10.140Z,22.90
2023-02-03T22:54:37.009Z,19.02
2023-02-03T22:57:03.876Z,18.90
2023-02-03T22:59:30.742Z,18.40
2023-02-03T23:01:57.570Z,19.85
2023-02-03T23:04:24.501Z,19.35
2023-02-03T23:06:51.390Z,21.80
2023-02-03T23:09:18.361Z,23.23
2023-02-03T23:11:45.378Z,19.70
2023-02-03T23:14:13.724Z,19.45
2023-02-03T23:16:40.541Z,20.05
2023-02-03T23:19:07.355Z,19.60
2023-02-03T23:21:34.328Z,20.40
2023-02-03T23:24:01.229Z,21.80
2023-02-03T23:26:28.127Z,22.30
2023-02-03T23:28:55.007Z,19.63
2023-02-03T23:31:21.912Z,18.73
2023-02-03T23:34:07.156Z,20.00
2023-02-03T23:36:34.116Z,20.45
2023-02-03T23:39:00.972Z,18.67
2023-02-03T23:41:27.944Z,18.65
2023-02-03T23:43:54.778Z,18.17
2023-02-03T23:46:21.715Z,17.65
2023-02-03T23:48:48.595Z,18.83
2023-02-03T23:51:15.437Z,18.38
2023-02-03T23:53:42.288Z,17.52
2023-02-03T23:56:09.140Z,17.25
2023-02-03T23:58:35.967Z,17.67
